createdAt,value
2022-10-28T00:00:52.319Z,16.95
2022-10-28T00:03:19.398Z,19.05
2022-10-28T00:05:46.480Z,12.93
2022-10-28T00:08:13.546Z,19.00
2022-10-28T00:10:40.312Z,14.43
2022-10-28T00:13:07.280Z,17.80
2022-10-28T00:15:35.631Z,20.00
2022-10-28T00:18:02.514Z,22.65
2022-10-28T00:20:31.929Z,17.80
2022-10-28T00:22:58.798Z,16.30
2022-10-28T00:25:25.632Z,19.17
2022-10-28T00:27:53.048Z,19.60
2022-10-28T00:30:20.343Z,17.42
2022-10-28T00:32:47.245Z,15.63
2022-10-28T00:35:14.145Z,18.02
2022-10-28T00:37:41.016Z,23.02
2022-10-28T00:40:08.385Z,14.82
2022-10-28T00:42:35.271Z,25.00
2022-10-28T00:45:03.392Z,18.75
2022-10-28T00:47:39.470Z,17.95
2022-10-28T00:50:15.700Z,19.58
2022-10-28T00:52:46.052Z,19.40
2022-10-28T00:55:15.756Z,14.48
2022-10-28T00:57:43.762Z,14.68
2022-10-28T01:00:11.498Z,15.20
2022-10-28T01:02:45.344Z,14.15
2022-10-28T01:05:15.391Z,18.95
2022-10-28T01:07:42.907Z,19.05
2022-10-28T01:10:10.707Z,13.93
2022-10-28T01:13:07.753Z,17.02
2022-10-28T01:15:56.799Z,13.93
2022-10-28T01:18:40.812Z,17.77
2022-10-28T01:21:34.892Z,20.65
2022-10-28T01:24:25.289Z,14.30
2022-10-28T01:27:19.756Z,18.60
2022-10-28T01:30:08.598Z,14.77
2022-10-28T01:32:52.298Z,15.25
2022-10-28T01:35:37.283Z,17.05
2022-10-28T01:38:19.581Z,20.65
2022-10-28T01:41:01.146Z,18.50
2022-10-28T01:43:34.318Z,13.40
2022-10-28T01:46:17.338Z,16.00
2022-10-28T01:48:53.879Z,19.20
2022-10-28T01:51:26.195Z,14.25
2022-10-28T01:53:56.417Z,16.52
2022-10-28T01:56:28.371Z,12.90
2022-10-28T01:58:59.153Z,18.48
2022-10-28T02:01:27.972Z,12.40
2022-10-28T02:03:55.394Z,16.40
2022-10-28T02:06:27.201Z,13.63
2022-10-28T02:09:20.112Z,21.55
2022-10-28T02:12:19.905Z,14.95
2022-10-28T02:15:26.080Z,18.58
2022-10-28T02:18:11.865Z,18.63
2022-10-28T02:21:12.068Z,13.93
2022-10-28T02:24:08.583Z,15.32
2022-10-28T02:26:42.037Z,15.48
2022-10-28T02:29:17.580Z,18.38
2022-10-28T02:34:24.460Z,15.43
2022-10-28T02:36:54.904Z,14.80
2022-10-28T02:39:28.333Z,17.77
2022-10-28T02:42:06.249Z,15.63
2022-10-28T02:44:38.706Z,20.33
2022-10-28T02:47:11.549Z,14.07
2022-10-28T02:49:41.543Z,17.02
2022-10-28T02:52:09.220Z,12.60
2022-10-28T02:54:41.898Z,20.85
2022-10-28T02:57:23.480Z,14.63
2022-10-28T02:59:58.533Z,17.98
2022-10-28T03:02:26.423Z,15.10
2022-10-28T03:04:54.112Z,19.17
2022-10-28T03:07:21.321Z,14.80
2022-10-28T03:09:48.169Z,14.40
2022-10-28T03:12:15.233Z,19.30
2022-10-28T03:14:42.506Z,16.90
2022-10-28T03:17:09.484Z,18.92
2022-10-28T03:19:36.241Z,14.15
2022-10-28T03:22:03.284Z,15.25
2022-10-28T03:24:30.119Z,13.63
2022-10-28T03:26:57.076Z,17.45
2022-10-28T03:29:23.913Z,20.48
2022-10-28T03:31:50.798Z,23.90
2022-10-28T03:34:17.756Z,21.42
2022-10-28T03:36:44.750Z,18.60
2022-10-28T03:39:14.567Z,16.58
2022-10-28T03:41:41.425Z,15.55
2022-10-28T03:44:08.308Z,18.13
2022-10-28T03:46:36.138Z,15.55
2022-10-28T03:49:03.549Z,22.13
2022-10-28T03:51:30.617Z,20.15
2022-10-28T03:53:57.722Z,21.40
2022-10-28T03:56:24.815Z,13.63
2022-10-28T04:01:19.472Z,22.20
2022-10-28T04:03:46.369Z,20.95
2022-10-28T04:06:13.421Z,22.00
2022-10-28T04:08:40.178Z,16.65
2022-10-28T04:11:07.034Z,19.20
2022-10-28T04:13:34.236Z,17.58
2022-10-28T04:16:01.977Z,25.30
2022-10-28T04:18:28.911Z,21.08
2022-10-28T04:20:55.955Z,18.63
2022-10-28T04:23:23.058Z,17.73
2022-10-28T04:25:54.378Z,20.55
2022-10-28T04:28:24.275Z,20.08
2022-10-28T04:30:51.370Z,17.50
2022-10-28T04:33:18.452Z,16.38
2022-10-28T04:35:45.542Z,22.00
2022-10-28T04:38:14.234Z,20.30
2022-10-28T04:40:41.442Z,19.50
2022-10-28T04:43:10.074Z,24.35
2022-10-28T04:45:38.139Z,17.90
2022-10-28T04:48:05.135Z,20.40
2022-10-28T04:50:32.288Z,19.13
2022-10-28T04:53:00.025Z,18.92
2022-10-28T04:55:27.017Z,22.67
2022-10-28T04:57:55.774Z,19.27
2022-10-28T05:00:23.618Z,19.80
2022-10-28T05:02:50.564Z,17.60
2022-10-28T05:05:17.959Z,20.08
2022-10-28T05:07:45.021Z,19.70
2022-10-28T05:10:15.405Z,27.27
2022-10-28T05:12:43.280Z,16.83
2022-10-28T05:15:11.364Z,16.58
2022-10-28T05:17:48.173Z,21.92
2022-10-28T05:20:17.189Z,21.10
2022-10-28T05:22:48.571Z,17.88
2022-10-28T05:25:15.736Z,19.05
2022-10-28T05:27:43.515Z,20.27
2022-10-28T05:30:11.442Z,16.02
2022-10-28T05:32:38.359Z,23.58
2022-10-28T05:35:05.605Z,14.35
2022-10-28T05:37:32.475Z,24.98
2022-10-28T05:39:59.317Z,19.02
2022-10-28T05:42:26.222Z,22.13
2022-10-28T05:44:53.091Z,22.83
2022-10-28T05:47:19.857Z,20.92
2022-10-28T05:49:46.682Z,22.30
2022-10-28T05:52:13.476Z,17.10
2022-10-28T05:54:40.310Z,16.80
2022-10-28T05:57:07.105Z,18.55
2022-10-28T05:59:34.227Z,19.55
2022-10-28T06:02:01.072Z,12.50
2022-10-28T06:04:27.963Z,20.73
2022-10-28T06:06:56.251Z,20.02
2022-10-28T06:09:23.068Z,14.75
2022-10-28T06:11:48.421Z,21.23
2022-10-28T06:14:15.298Z,22.10
2022-10-28T06:16:42.360Z,21.80
2022-10-28T06:19:09.247Z,14.93
2022-10-28T06:21:36.162Z,20.13
2022-10-28T06:24:03.447Z,21.92
2022-10-28T06:26:30.483Z,18.35
2022-10-28T06:28:57.359Z,17.52
2022-10-28T06:31:24.110Z,16.63
2022-10-28T06:33:50.913Z,22.08
2022-10-28T06:36:17.710Z,15.55
2022-10-28T06:38:44.576Z,17.45
2022-10-28T06:41:11.361Z,20.77
2022-10-28T06:43:38.252Z,17.75
2022-10-28T06:46:05.256Z,17.90
2022-10-28T06:48:33.667Z,16.45
2022-10-28T06:51:01.265Z,17.33
2022-10-28T06:53:28.102Z,23.25
2022-10-28T06:55:58.851Z,17.75
2022-10-28T06:58:26.533Z,15.48
2022-10-28T07:00:53.872Z,16.15
2022-10-28T07:03:20.787Z,21.00
2022-10-28T07:05:49.937Z,17.83
2022-10-28T07:08:17.195Z,17.15
2022-10-28T07:10:44.021Z,15.48
2022-10-28T07:13:10.901Z,18.63
2022-10-28T07:15:38.479Z,18.38
2022-10-28T07:18:05.493Z,13.73
2022-10-28T07:20:33.024Z,11.55
2022-10-28T07:23:01.813Z,15.57
2022-10-28T07:25:30.599Z,17.90
2022-10-28T07:27:58.966Z,16.60
2022-10-28T07:30:26.456Z,28.00
2022-10-28T07:32:53.458Z,24.73
2022-10-28T07:35:20.968Z,21.65
2022-10-28T07:37:48.018Z,27.58
2022-10-28T07:40:15.061Z,27.48
2022-10-28T07:42:41.991Z,28.48
2022-10-28T07:45:09.292Z,20.35
2022-10-28T07:47:36.410Z,22.83
2022-10-28T07:50:03.691Z,20.30
2022-10-28T07:52:30.601Z,16.52
2022-10-28T07:54:57.424Z,16.98
2022-10-28T07:57:24.262Z,18.13
2022-10-28T07:59:51.082Z,17.50
2022-10-28T08:02:20.245Z,15.18
2022-10-28T08:04:47.969Z,23.52
2022-10-28T08:07:15.400Z,20.63
2022-10-28T08:09:42.284Z,18.20
2022-10-28T08:12:12.579Z,17.85
2022-10-28T08:14:39.724Z,18.70
2022-10-28T08:17:07.023Z,18.45
2022-10-28T08:19:33.972Z,16.10
2022-10-28T08:22:02.345Z,16.60
2022-10-28T08:24:29.194Z,15.35
2022-10-28T08:26:56.196Z,18.38
2022-10-28T08:29:27.697Z,22.90
2022-10-28T08:31:57.876Z,23.48
2022-10-28T08:34:29.688Z,20.30
2022-10-28T08:36:58.234Z,17.67
2022-10-28T08:39:25.337Z,20.83
2022-10-28T08:42:23.917Z,16.27
2022-10-28T08:45:16.240Z,21.42
2022-10-28T08:48:40.660Z,16.42
2022-10-28T08:51:22.151Z,16.67
2022-10-28T08:54:00.766Z,22.23
2022-10-28T08:56:48.405Z,18.92
2022-10-28T08:59:29.421Z,19.98
2022-10-28T09:02:31.800Z,22.95
2022-10-28T09:05:05.894Z,18.23
2022-10-28T09:07:35.758Z,16.08
2022-10-28T09:10:05.711Z,16.85
2022-10-28T09:12:57.346Z,15.63
2022-10-28T09:15:55.659Z,17.10
2022-10-28T09:18:40.473Z,16.67
2022-10-28T09:21:18.338Z,20.98
2022-10-28T09:23:55.565Z,16.38
2022-10-28T09:26:40.902Z,23.05
2022-10-28T09:29:26.471Z,19.50
2022-10-28T09:32:04.228Z,17.38
2022-10-28T09:34:52.338Z,13.55
2022-10-28T09:37:36.443Z,17.02
2022-10-28T09:40:13.751Z,18.88
2022-10-28T09:42:48.591Z,21.33
2022-10-28T09:45:25.485Z,24.35
2022-10-28T09:48:24.289Z,19.40
2022-10-28T09:50:54.254Z,15.70
2022-10-28T09:53:37.049Z,18.58
2022-10-28T09:56:06.500Z,16.95
2022-10-28T09:58:34.641Z,21.88
2022-10-28T10:01:03.665Z,23.80
2022-10-28T10:03:31.419Z,17.30
2022-10-28T10:06:04.778Z,18.17
2022-10-28T10:08:31.853Z,16.60
2022-10-28T10:11:27.856Z,13.80
2022-10-28T10:13:57.560Z,15.48
2022-10-28T10:16:46.139Z,18.27
2022-10-28T10:19:13.728Z,19.15
2022-10-28T10:21:42.408Z,18.55
2022-10-28T10:24:22.213Z,15.52
2022-10-28T10:26:49.285Z,16.42
2022-10-28T10:29:16.202Z,15.68
2022-10-28T10:31:43.690Z,16.05
2022-10-28T10:34:25.474Z,19.05
2022-10-28T10:36:55.779Z,20.50
2022-10-28T10:39:37.270Z,17.05
2022-10-28T10:42:16.491Z,16.67
2022-10-28T10:44:43.800Z,19.27
2022-10-28T10:47:10.578Z,15.70
2022-10-28T10:49:37.695Z,14.50
2022-10-28T10:52:24.280Z,21.27
2022-10-28T10:55:05.231Z,14.18
2022-10-28T10:57:33.374Z,14.32
2022-10-28T11:00:00.864Z,18.67
2022-10-28T11:02:34.944Z,23.15
2022-10-28T11:05:08.918Z,17.13
2022-10-28T11:07:40.499Z,16.35
2022-10-28T11:10:23.305Z,10.98
2022-10-28T11:12:58.563Z,16.70
2022-10-28T11:15:29.969Z,18.77
2022-10-28T11:18:04.126Z,17.30
2022-10-28T11:20:59.106Z,14.55
2022-10-28T11:23:41.369Z,15.98
2022-10-28T11:26:13.136Z,16.00
2022-10-28T11:28:50.556Z,16.55
2022-10-28T11:31:36.054Z,14.65
2022-10-28T11:34:38.431Z,16.35
2022-10-28T11:37:18.456Z,22.13
2022-10-28T11:39:56.034Z,19.73
2022-10-28T11:42:48.952Z,20.10
2022-10-28T11:45:48.570Z,13.95
2022-10-28T11:48:22.845Z,12.90
2022-10-28T11:51:04.961Z,15.40
2022-10-28T11:53:55.969Z,10.55
2022-10-28T11:56:34.909Z,13.25
2022-10-28T11:59:23.610Z,15.40
2022-10-28T12:02:17.078Z,13.88
2022-10-28T12:05:18.809Z,17.92
2022-10-28T12:08:27.814Z,20.52
2022-10-28T12:11:07.973Z,14.52
2022-10-28T12:13:58.057Z,17.00
2022-10-28T12:16:50.343Z,15.85
2022-10-28T12:19:29.797Z,15.48
2022-10-28T12:22:25.714Z,18.30
2022-10-28T12:24:54.331Z,12.43
2022-10-28T12:27:34.086Z,15.02
2022-10-28T12:30:28.155Z,16.60
2022-10-28T12:33:20.937Z,14.57
2022-10-28T12:35:54.084Z,20.42
2022-10-28T12:38:51.655Z,17.38
2022-10-28T12:41:30.913Z,27.42
2022-10-28T12:44:03.863Z,16.45
2022-10-28T12:49:46.118Z,15.93
2022-10-28T12:52:30.092Z,15.55
2022-10-28T12:55:29.217Z,20.58
2022-10-28T12:58:16.311Z,9.90
2022-10-28T13:00:51.154Z,14.35
2022-10-28T13:03:19.279Z,22.13
2022-10-28T13:05:58.291Z,17.85
2022-10-28T13:08:40.465Z,18.20
2022-10-28T13:11:18.981Z,16.50
2022-10-28T13:14:06.130Z,14.98
2022-10-28T13:16:46.512Z,20.15
2022-10-28T13:19:49.645Z,15.98
2022-10-28T13:22:40.645Z,12.73
2022-10-28T13:25:24.441Z,14.82
2022-10-28T13:27:59.439Z,18.08
2022-10-28T13:30:27.927Z,17.85
2022-10-28T13:33:15.544Z,17.23
2022-10-28T13:35:43.156Z,14.40
2022-10-28T13:38:12.795Z,17.38
2022-10-28T13:40:39.587Z,14.55
2022-10-28T13:43:21.175Z,19.45
2022-10-28T13:45:56.066Z,15.77
2022-10-28T13:48:29.158Z,20.63
2022-10-28T13:51:11.306Z,22.15
2022-10-28T13:53:45.487Z,17.95
2022-10-28T13:56:17.085Z,15.15
2022-10-28T13:58:56.893Z,18.10
2022-10-28T14:01:56.724Z,17.45
2022-10-28T14:04:39.577Z,15.75
2022-10-28T14:07:12.746Z,17.48
2022-10-28T14:09:41.960Z,21.40
2022-10-28T14:12:23.243Z,17.75
2022-10-28T14:15:00.681Z,15.15
2022-10-28T14:17:34.508Z,23.45
2022-10-28T14:20:02.725Z,24.90
2022-10-28T14:22:34.037Z,29.08
2022-10-28T14:25:01.820Z,24.77
2022-10-28T14:27:42.343Z,25.73
2022-10-28T14:30:15.679Z,19.08
2022-10-28T14:32:58.660Z,21.35
2022-10-28T14:35:42.071Z,29.13
2022-10-28T14:38:35.322Z,21.65
2022-10-28T14:41:23.653Z,21.38
2022-10-28T14:43:53.530Z,25.42
2022-10-28T14:46:47.165Z,32.33
2022-10-28T14:49:35.315Z,24.42
2022-10-28T14:52:10.274Z,22.48
2022-10-28T14:54:58.857Z,23.02
2022-10-28T14:57:33.785Z,24.85
2022-10-28T15:02:37.115Z,24.90
2022-10-28T15:05:20.901Z,23.40
2022-10-28T15:07:48.361Z,22.05
2022-10-28T15:10:16.163Z,20.50
2022-10-28T15:12:51.483Z,30.45
2022-10-28T15:15:21.374Z,23.63
2022-10-28T15:17:49.645Z,31.40
2022-10-28T15:20:27.090Z,23.27
2022-10-28T15:23:11.003Z,28.30
2022-10-28T15:25:37.902Z,28.50
2022-10-28T15:28:04.912Z,22.67
2022-10-28T15:30:32.263Z,21.63
2022-10-28T15:33:20.680Z,24.40
2022-10-28T15:35:48.088Z,29.40
2022-10-28T15:38:30.294Z,28.08
2022-10-28T15:40:57.365Z,22.13
2022-10-28T15:43:27.839Z,25.30
2022-10-28T15:46:07.902Z,26.67
2022-10-28T15:48:34.795Z,24.05
2022-10-28T15:51:30.995Z,30.42
2022-10-28T15:54:11.564Z,25.85
2022-10-28T15:56:58.988Z,25.15
2022-10-28T15:59:26.962Z,29.73
2022-10-28T16:01:56.229Z,22.58
2022-10-28T16:04:23.294Z,25.25
2022-10-28T16:06:56.658Z,23.30
2022-10-28T16:09:32.338Z,29.50
2022-10-28T16:12:11.884Z,26.33
2022-10-28T16:14:41.679Z,27.05
2022-10-28T16:17:23.734Z,22.23
2022-10-28T16:19:58.549Z,24.35
2022-10-28T16:22:27.679Z,36.35
2022-10-28T16:24:55.069Z,27.20
2022-10-28T16:27:24.098Z,28.08
2022-10-28T16:29:51.706Z,29.27
2022-10-28T16:32:24.354Z,33.78
2022-10-28T16:34:51.249Z,32.45
2022-10-28T16:37:22.489Z,30.13
2022-10-28T16:39:49.707Z,30.60
2022-10-28T16:42:17.667Z,27.58
2022-10-28T16:44:44.527Z,27.70
2022-10-28T16:47:16.929Z,28.38
2022-10-28T16:49:44.224Z,27.70
2022-10-28T16:52:17.782Z,23.35
2022-10-28T16:54:44.624Z,33.08
2022-10-28T16:57:11.442Z,26.55
2022-10-28T16:59:38.448Z,26.20
2022-10-28T17:02:13.739Z,26.10
2022-10-28T17:07:07.433Z,24.90
2022-10-28T17:09:34.275Z,32.72
2022-10-28T17:12:01.141Z,25.73
2022-10-28T17:14:27.973Z,22.95
2022-10-28T17:16:54.741Z,23.75
2022-10-28T17:19:24.432Z,32.13
2022-10-28T17:21:51.288Z,30.73
2022-10-28T17:24:18.058Z,35.45
2022-10-28T17:26:47.399Z,23.17
2022-10-28T17:29:14.547Z,29.42
2022-10-28T17:31:41.421Z,28.02
2022-10-28T17:34:09.915Z,27.92
2022-10-28T17:36:37.129Z,28.45
2022-10-28T17:39:04.125Z,24.20
2022-10-28T17:41:31.157Z,17.15
2022-10-28T17:43:57.948Z,31.45
2022-10-28T17:46:24.822Z,23.58
2022-10-28T17:48:51.664Z,27.42
2022-10-28T17:51:20.933Z,24.83
2022-10-28T17:53:53.033Z,24.25
2022-10-28T17:56:19.916Z,23.08
2022-10-28T17:58:46.707Z,24.75
2022-10-28T18:01:13.883Z,23.73
2022-10-28T18:03:40.747Z,25.95
2022-10-28T18:06:12.197Z,31.80
2022-10-28T18:08:41.468Z,36.88
2022-10-28T18:11:10.388Z,25.38
2022-10-28T18:13:39.175Z,27.98
2022-10-28T18:16:06.980Z,21.70
2022-10-28T18:18:39.053Z,30.20
2022-10-28T18:21:09.886Z,18.95
2022-10-28T18:23:36.646Z,24.70
2022-10-28T18:26:07.421Z,20.45
2022-10-28T18:28:35.879Z,24.20
2022-10-28T18:31:03.472Z,25.92
2022-10-28T18:33:30.778Z,30.80
2022-10-28T18:36:02.141Z,33.22
2022-10-28T18:38:29.156Z,28.35
2022-10-28T18:40:56.034Z,28.27
2022-10-28T18:43:23.727Z,24.65
2022-10-28T18:45:50.844Z,26.90
2022-10-28T18:48:18.354Z,21.45
2022-10-28T18:50:56.409Z,37.15
2022-10-28T18:53:23.527Z,24.80
2022-10-28T18:55:50.505Z,20.85
2022-10-28T18:58:17.692Z,24.73
2022-10-28T19:00:44.533Z,27.48
2022-10-28T19:03:22.951Z,28.73
2022-10-28T19:05:49.835Z,21.67
2022-10-28T19:08:16.620Z,22.95
2022-10-28T19:10:43.530Z,24.80
2022-10-28T19:13:10.355Z,20.40
2022-10-28T19:15:42.061Z,25.63
2022-10-28T19:18:09.122Z,22.98
2022-10-28T19:20:35.901Z,18.70
2022-10-28T19:23:02.801Z,14.35
2022-10-28T19:25:29.642Z,16.10
2022-10-28T19:27:58.850Z,17.38
2022-10-28T19:30:25.676Z,11.73
2022-10-28T19:32:52.951Z,19.48
2022-10-28T19:35:20.061Z,16.77
2022-10-28T19:37:46.859Z,15.73
2022-10-28T19:40:13.772Z,15.43
2022-10-28T19:42:40.656Z,22.23
2022-10-28T19:45:08.419Z,15.00
2022-10-28T19:47:35.368Z,16.30
2022-10-28T19:50:02.188Z,16.95
2022-10-28T19:52:29.056Z,15.02
2022-10-28T19:54:55.863Z,13.85
2022-10-28T19:57:22.720Z,19.38
2022-10-28T19:59:49.522Z,12.80
2022-10-28T20:02:16.606Z,21.52
2022-10-28T20:04:43.427Z,21.13
2022-10-28T20:07:10.269Z,11.23
2022-10-28T20:09:37.070Z,14.77
2022-10-28T20:12:04.016Z,17.15
2022-10-28T20:14:31.745Z,13.80
2022-10-28T20:17:06.307Z,14.68
2022-10-28T20:19:33.851Z,16.35
2022-10-28T20:22:00.698Z,19.23
2022-10-28T20:24:27.574Z,16.65
2022-10-28T20:26:54.328Z,12.40
2022-10-28T20:29:21.141Z,19.38
2022-10-28T20:31:47.915Z,17.95
2022-10-28T20:34:14.739Z,16.30
2022-10-28T20:36:45.867Z,16.42
2022-10-28T20:39:15.717Z,14.55
2022-10-28T20:41:44.225Z,18.60
2022-10-28T20:44:11.295Z,14.30
2022-10-28T20:46:38.302Z,15.73
2022-10-28T20:49:05.820Z,17.08
2022-10-28T20:51:33.600Z,18.55
2022-10-28T20:54:01.923Z,23.70
2022-10-28T20:56:31.324Z,15.70
2022-10-28T20:58:58.931Z,17.35
2022-10-28T21:01:28.320Z,14.98
2022-10-28T21:03:56.830Z,15.32
2022-10-28T21:06:24.240Z,17.52
2022-10-28T21:08:53.474Z,18.80
2022-10-28T21:11:22.767Z,11.68
2022-10-28T21:13:55.231Z,17.38
2022-10-28T21:16:22.831Z,13.30
2022-10-28T21:18:50.235Z,19.65
2022-10-28T21:21:18.517Z,21.02
2022-10-28T21:23:45.672Z,12.05
2022-10-28T21:26:13.277Z,15.48
2022-10-28T21:28:41.524Z,16.83
2022-10-28T21:31:13.739Z,14.63
2022-10-28T21:33:42.046Z,14.70
2022-10-28T21:36:14.222Z,18.55
2022-10-28T21:38:41.454Z,20.20
2022-10-28T21:41:19.805Z,21.88
2022-10-28T21:43:51.545Z,16.80
2022-10-28T21:46:20.092Z,14.90
2022-10-28T21:48:47.175Z,18.45
2022-10-28T21:51:15.772Z,20.25
2022-10-28T21:53:43.896Z,18.80
2022-10-28T21:56:18.497Z,18.15
2022-10-28T21:58:49.636Z,13.43
2022-10-28T22:01:22.217Z,16.98
2022-10-28T22:03:50.266Z,19.60
2022-10-28T22:06:17.440Z,17.92
2022-10-28T22:08:44.509Z,16.27
2022-10-28T22:11:16.918Z,14.95
2022-10-28T22:13:44.447Z,19.60
2022-10-28T22:16:15.935Z,15.65
2022-10-28T22:18:44.075Z,17.17
2022-10-28T22:21:14.620Z,18.05
2022-10-28T22:23:42.058Z,10.77
2022-10-28T22:26:13.659Z,19.75
2022-10-28T22:28:40.898Z,17.65
2022-10-28T22:31:10.134Z,22.77
2022-10-28T22:33:37.753Z,23.40
2022-10-28T22:36:19.803Z,17.98
2022-10-28T22:38:47.248Z,16.33
2022-10-28T22:41:18.673Z,17.02
2022-10-28T22:43:51.202Z,21.33
2022-10-28T22:46:18.547Z,16.05
2022-10-28T22:48:46.178Z,15.07
2022-10-28T22:51:13.551Z,16.05
2022-10-28T22:53:41.024Z,20.25
2022-10-28T22:56:10.885Z,23.27
2022-10-28T22:58:37.707Z,16.00
2022-10-28T23:01:10.238Z,17.02
2022-10-28T23:03:46.166Z,18.30
2022-10-28T23:06:15.365Z,19.98
2022-10-28T23:08:44.777Z,21.38
2022-10-28T23:11:12.835Z,16.85
2022-10-28T23:13:39.920Z,14.15
2022-10-28T23:16:09.303Z,16.48
2022-10-28T23:18:36.775Z,18.17
2022-10-28T23:21:15.383Z,13.82
2022-10-28T23:23:42.964Z,12.18
2022-10-28T23:26:11.329Z,14.70
2022-10-28T23:28:38.168Z,18.70
2022-10-28T23:31:06.410Z,15.82
2022-10-28T23:33:34.556Z,13.38
2022-10-28T23:36:06.230Z,14.57
2022-10-28T23:38:33.281Z,15.43
2022-10-28T23:41:13.744Z,13.75
2022-10-28T23:43:41.711Z,17.27
2022-10-28T23:46:08.784Z,16.35
2022-10-28T23:48:35.659Z,16.80
2022-10-28T23:51:02.446Z,17.08
2022-10-28T23:53:30.669Z,15.05
2022-10-28T23:55:57.931Z,13.82
2022-10-28T23:58:24.849Z,14.82
